Time;durP1;ratioP1;P1;durP2;ratioP2;P2;SDS_P1;SDS_P2;PMS_P1;PMS_P2;Temp;Humidity;BMP_temperature;BMP_pressure;BME280_temperature;BME280_humidity;BME280_pressure;Samples;Min_cycle;Max_cycle;Signal;HPM_P1;HPM_P2
2023/04/23 00:00:48;;;;;;;64.75;51.60;;;;;;;7.79;100.00;100680.91;5050072;28;20124;-85
2023/04/23 00:03:22;;;;;;;65.10;50.40;;;;;;;7.80;100.00;100682.59;5051817;28;20025;-85
2023/04/23 00:05:55;;;;;;;65.78;50.63;;;;;;;7.77;100.00;100669.69;5051130;28;20017;-86
2023/04/23 00:08:21;;;;;;;;;;;;;;;7.89;100.00;100674.13;5062364;28;20103;-85
2023/04/23 00:10:52;;;;;;;63.58;50.15;;;;;;;7.78;100.00;100660.91;5030792;28;19952;-85
2023/04/23 00:13:39;;;;;;;63.80;49.90;;;;;;;7.74;100.00;100665.50;5035635;28;20044;-85
2023/04/23 00:16:27;;;;;;;63.20;50.97;;;;;;;7.75;100.00;100661.09;5041794;28;20502;-85
2023/04/23 00:18:56;;;;;;;63.65;50.88;;;;;;;7.76;100.00;100668.03;5025716;28;20474;-85
2023/04/23 00:21:27;;;;;;;61.38;48.97;;;;;;;7.74;100.00;100659.44;5034852;28;20048;-85
2023/04/23 00:23:56;;;;;;;62.77;49.10;;;;;;;7.76;100.00;100666.25;5051115;28;20067;-85
2023/04/23 00:26:25;;;;;;;62.50;48.67;;;;;;;7.72;100.00;100661.31;5046291;28;20290;-85
2023/04/23 00:28:53;;;;;;;59.83;46.38;;;;;;;7.72;100.00;100661.31;5048537;28;20057;-85
2023/04/23 00:31:25;;;;;;;58.30;46.50;;;;;;;7.76;100.00;100662.78;5049453;28;20033;-85
2023/04/23 00:33:53;;;;;;;55.22;45.10;;;;;;;7.73;100.00;100657.75;5049448;28;20082;-85
2023/04/23 00:36:18;;;;;;;54.10;44.33;;;;;;;7.73;100.00;100661.22;5049254;28;20037;-85
2023/04/23 00:38:50;;;;;;;54.90;43.15;;;;;;;7.73;100.00;100658.59;5050229;28;20167;-85
2023/04/23 00:41:28;;;;;;;50.55;43.05;;;;;;;7.70;100.00;100652.72;5048634;28;20037;-86
2023/04/23 00:43:57;;;;;;;49.00;42.33;;;;;;;7.70;100.00;100653.56;5048933;28;20397;-86
2023/04/23 00:46:29;;;;;;;52.13;43.00;;;;;;;7.69;100.00;100640.56;5048572;28;20037;-85
2023/04/23 00:48:55;;;;;;;52.22;41.85;;;;;;;7.73;100.00;100642.03;5048913;28;20037;-85
2023/04/23 00:51:22;;;;;;;48.03;40.22;;;;;;;7.76;100.00;100636.59;5045690;28;20040;-86
2023/04/23 00:53:51;;;;;;;49.70;41.63;;;;;;;7.77;100.00;100639.13;5036165;28;20093;-86
2023/04/23 00:56:22;;;;;;;47.30;41.10;;;;;;;7.77;100.00;100633.03;5049805;28;20389;-85
2023/04/23 00:58:51;;;;;;;52.85;42.63;;;;;;;7.81;100.00;100629.28;5051320;28;20036;-86
2023/04/23 01:01:24;;;;;;;49.03;41.97;;;;;;;7.80;100.00;100622.34;5047525;28;20044;-85
2023/04/23 01:03:57;;;;;;;50.78;42.35;;;;;;;7.83;100.00;100622.16;5048584;28;20040;-86
2023/04/23 01:06:24;;;;;;;50.30;42.28;;;;;;;7.87;100.00;100621.00;5049396;28;20327;-85
2023/04/23 01:08:49;;;;;;;47.70;40.65;;;;;;;7.87;100.00;100618.38;5030803;28;21066;-85
2023/04/23 01:11:21;;;;;;;49.60;40.75;;;;;;;7.92;100.00;100621.53;5033048;28;20028;-85
2023/04/23 01:13:46;;;;;;;47.05;41.90;;;;;;;7.94;100.00;100614.41;5046241;28;20029;-85
2023/04/23 01:16:37;;;;;;;50.30;42.15;;;;;;;7.95;100.00;100616.09;5035271;28;20082;-85
2023/04/23 01:19:18;;;;;;;49.72;41.03;;;;;;;7.92;100.00;100616.28;5030710;28;20051;-86
2023/04/23 01:21:47;;;;;;;46.30;40.55;;;;;;;7.94;100.00;100608.34;5030776;28;20059;-86
2023/04/23 01:24:19;;;;;;;44.15;39.35;;;;;;;7.91;100.00;100608.53;5044438;28;20112;-86
2023/04/23 01:26:54;;;;;;;45.88;40.00;;;;;;;7.94;100.00;100610.94;5048947;28;20040;-86
2023/04/23 01:29:26;;;;;;;45.38;39.80;;;;;;;7.91;100.00;100608.53;5050418;28;20486;-86
2023/04/23 01:32:02;;;;;;;48.67;40.85;;;;;;;7.91;100.00;100606.75;5050163;28;20025;-86
2023/04/23 01:34:32;;;;;;;47.60;39.80;;;;;;;7.92;100.00;100608.44;5047212;28;20100;-85
2023/04/23 01:37:05;;;;;;;45.92;39.28;;;;;;;7.96;100.00;100609.06;5047817;28;20449;-86
2023/04/23 01:39:30;;;;;;;45.03;39.10;;;;;;;7.96;100.00;100606.44;5034616;28;20398;-86
2023/04/23 01:42:07;;;;;;;45.97;39.17;;;;;;;7.99;100.00;100607.09;5028997;28;20033;-85
2023/04/23 01:44:38;;;;;;;44.35;38.20;;;;;;;7.98;100.00;100604.56;5027573;28;20048;-85
2023/04/23 01:47:04;;;;;;;44.13;39.33;;;;;;;7.99;100.00;100601.84;5026608;28;20506;-85
2023/04/23 01:49:30;;;;;;;43.75;38.67;;;;;;;7.98;100.00;100605.41;5027744;28;20280;-85
2023/04/23 01:51:58;;;;;;;43.83;38.72;;;;;;;7.98;100.00;100604.56;5046002;28;20123;-85
2023/04/23 01:54:30;;;;;;;43.00;38.22;;;;;;;7.99;100.00;100609.69;5048287;28;20029;-85
2023/04/23 01:57:06;;;;;;;;;;;;;;;;;;;;;
2023/04/23 02:00:10;;;;;;;40.80;36.45;;;;;;;7.98;100.00;100610.63;5048004;28;20025;-86
2023/04/23 02:03:00;;;;;;;42.17;37.38;;;;;;;7.98;100.00;100600.16;5043779;28;20125;-85
2023/04/23 02:05:35;;;;;;;39.67;35.38;;;;;;;7.94;100.00;100603.94;5048238;28;20397;-86
2023/04/23 02:08:11;;;;;;;41.08;36.65;;;;;;;7.92;100.00;100602.34;5045912;28;20070;-86
2023/04/23 02:10:42;;;;;;;39.30;35.17;;;;;;;7.92;100.00;100600.56;5029248;28;20029;-86
2023/04/23 02:13:10;;;;;;;37.47;33.42;;;;;;;7.94;100.00;100598.69;5048118;28;20063;-85
2023/04/23 02:15:37;;;;;;;38.83;33.75;;;;;;;7.93;100.00;100591.78;5043228;28;20053;-86
2023/04/23 02:18:09;;;;;;;36.70;32.80;;;;;;;7.95;100.00;100586.44;5035324;28;20031;-86
2023/04/23 02:20:37;;;;;;;;;;;;;;;8.04;100.00;100586.69;5048583;28;20063;-86
2023/04/23 02:23:09;;;;;;;35.53;31.70;;;;;;;7.99;100.00;100591.38;5047860;28;19917;-86
2023/04/23 02:25:38;;;;;;;34.78;31.33;;;;;;;8.00;100.00;100587.78;5046396;28;20025;-86
2023/04/23 02:28:13;;;;;;;34.85;31.45;;;;;;;8.02;100.00;100588.56;5047390;28;20033;-86
2023/04/23 02:30:45;;;;;;;37.13;33.22;;;;;;;8.04;100.00;100588.47;5049674;28;20025;-86
2023/04/23 02:33:18;;;;;;;35.50;31.67;;;;;;;8.04;100.00;100584.06;5043430;28;20091;-86
2023/04/23 02:35:43;;;;;;;34.78;31.17;;;;;;;8.06;100.00;100589.19;5029603;28;20437;-86
2023/04/23 02:38:15;;;;;;;35.75;32.03;;;;;;;8.03;100.00;100589.41;5034511;28;20041;-86
2023/04/23 02:40:46;;;;;;;34.80;31.20;;;;;;;8.01;100.00;100586.06;5046865;28;20401;-86
2023/04/23 02:43:12;;;;;;;35.60;32.00;;;;;;;7.98;100.00;100601.94;5047713;28;20037;-86
2023/04/23 02:45:37;;;;;;;36.08;32.40;;;;;;;7.96;100.00;100575.84;5049646;28;20041;-86
2023/04/23 02:48:05;;;;;;;35.55;31.95;;;;;;;7.97;100.00;100588.00;5063076;28;20071;-86
2023/04/23 02:50:45;;;;;;;35.55;31.75;;;;;;;7.98;100.00;100579.19;5049421;28;20381;-86
2023/04/23 02:53:14;;;;;;;35.15;31.65;;;;;;;7.99;100.00;100588.75;5047017;28;20017;-86
2023/04/23 02:56:03;;;;;;;35.42;31.38;;;;;;;7.98;100.00;100576.59;5045962;28;20561;-86
2023/04/23 02:58:31;;;;;;;34.05;30.45;;;;;;;8.02;100.00;100583.31;5040420;28;20409;-86
2023/04/23 03:00:57;;;;;;;34.28;30.77;;;;;;;8.03;100.00;100582.38;5058356;28;20044;-86
2023/04/23 03:03:25;;;;;;;34.13;30.67;;;;;;;8.05;100.00;100579.66;5043290;28;20045;-86
2023/04/23 03:05:53;;;;;;;35.05;31.50;;;;;;;8.08;100.00;100576.81;5025306;28;20406;-86
2023/04/23 03:08:31;;;;;;;34.17;30.67;;;;;;;8.08;100.00;100575.03;5027142;28;20308;-86
2023/04/23 03:10:59;;;;;;;34.25;30.55;;;;;;;8.07;100.00;100573.38;5039702;28;20168;-86
2023/04/23 03:13:48;;;;;;;32.78;29.38;;;;;;;8.11;100.00;100569.59;5048288;28;20024;-86
2023/04/23 03:16:17;;;;;;;32.42;29.17;;;;;;;8.11;100.00;100576.63;5043965;28;20033;-86
2023/04/23 03:18:42;;;;;;;33.03;29.65;;;;;;;8.09;100.00;100566.25;5048514;28;20070;-86
2023/04/23 03:21:11;;;;;;;32.80;29.60;;;;;;;8.07;100.00;100567.28;5063547;28;20558;-86
2023/04/23 03:23:43;;;;;;;34.10;30.55;;;;;;;8.05;100.00;100561.31;5045038;28;20661;-86
2023/04/23 03:26:14;;;;;;;32.75;29.40;;;;;;;8.09;100.00;100566.25;5049002;28;20915;-86
2023/04/23 03:28:42;;;;;;;32.63;29.30;;;;;;;8.09;100.00;100568.03;5048379;28;20032;-85
2023/04/23 03:31:08;;;;;;;32.10;28.80;;;;;;;8.11;100.00;100564.34;5047212;28;20032;-84
2023/04/23 03:33:33;;;;;;;33.63;30.00;;;;;;;8.11;100.00;100559.09;5045226;28;20029;-84
2023/04/23 03:36:19;;;;;;;32.95;29.60;;;;;;;8.15;100.00;100555.34;5049333;28;20033;-85
2023/04/23 03:38:47;;;;;;;33.50;30.08;;;;;;;8.14;100.00;100558.06;5048395;28;20045;-84
2023/04/23 03:41:12;;;;;;;31.98;28.80;;;;;;;8.20;100.00;100562.03;5047482;28;20407;-84
2023/04/23 03:43:44;;;;;;;32.03;28.90;;;;;;;8.21;100.00;100563.72;5047288;28;20029;-84
2023/04/23 03:46:09;;;;;;;33.15;29.83;;;;;;;8.20;100.00;100556.81;5048968;28;20024;-85
2023/04/23 03:48:37;;;;;;;33.22;29.75;;;;;;;8.23;100.00;100551.34;5052407;28;20025;-84
2023/04/23 03:51:03;;;;;;;32.55;29.15;;;;;;;8.23;100.00;100561.81;5048839;28;20487;-85
2023/04/23 03:53:40;;;;;;;33.53;29.73;;;;;;;8.27;100.00;100565.91;5047995;28;20132;-85
2023/04/23 03:56:06;;;;;;;33.75;30.08;;;;;;;8.26;100.00;100566.84;5049334;28;20040;-85
2023/04/23 03:58:48;;;;;;;31.67;28.33;;;;;;;8.27;100.00;100571.16;5050149;28;20024;-86
2023/04/23 04:01:13;;;;;;;31.20;28.08;;;;;;;8.26;100.00;100566.84;5046139;28;20032;-86
2023/04/23 04:03:39;;;;;;;33.63;30.08;;;;;;;8.24;100.00;100564.34;5031380;28;20025;-85
2023/04/23 04:06:07;;;;;;;33.50;29.85;;;;;;;8.26;100.00;100569.47;5031024;28;20074;-86
2023/04/23 04:08:39;;;;;;;32.55;29.35;;;;;;;8.24;100.00;100564.34;5036467;28;20751;-86
2023/04/23 04:11:23;;;;;;;30.90;27.80;;;;;;;8.26;100.00;100572.09;5032976;28;20044;-86
2023/04/23 04:13:51;;;;;;;31.10;27.80;;;;;;;8.22;100.00;100565.38;5051679;28;20028;-85
2023/04/23 04:16:19;;;;;;;32.08;28.65;;;;;;;8.21;100.00;100574.19;5039706;28;20432;-85
2023/04/23 04:19:06;;;;;;;31.98;28.77;;;;;;;8.21;100.00;100580.28;5030414;28;20056;-86
2023/04/23 04:21:35;;;;;;;31.77;28.45;;;;;;;8.14;100.00;100582.47;5031385;28;20467;-85
2023/04/23 04:24:01;;;;;;;32.40;29.13;;;;;;;8.15;100.00;100575.47;5043066;28;20045;-86
2023/04/23 04:26:36;;;;;;;31.33;28.05;;;;;;;8.15;100.00;100586.78;5043058;28;20395;-86
2023/04/23 04:29:10;;;;;;;32.28;28.20;;;;;;;8.15;100.00;100586.78;5041124;28;20454;-86
2023/04/23 04:31:36;;;;;;;32.42;28.98;;;;;;;8.13;100.00;100582.59;5035085;28;20033;-86
2023/04/23 04:34:01;;;;;;;31.15;27.88;;;;;;;8.11;100.00;100571.38;5043525;28;20124;-85
2023/04/23 04:36:30;;;;;;;30.52;27.23;;;;;;;8.13;100.00;100570.31;5051150;28;20104;-86
2023/04/23 04:38:59;;;;;;;31.15;27.98;;;;;;;8.12;100.00;100568.66;5043760;28;20532;-86
2023/04/23 04:41:24;;;;;;;32.20;28.73;;;;;;;8.14;100.00;100574.63;5042673;28;20500;-86
2023/04/23 04:43:50;;;;;;;32.17;28.98;;;;;;;8.16;100.00;100569.28;5031652;28;20052;-85
2023/04/23 04:46:30;;;;;;;32.25;29.02;;;;;;;8.11;100.00;100569.59;5031156;28;20079;-85
2023/04/23 04:49:01;;;;;;;32.33;29.00;;;;;;;8.11;100.00;100564.34;5031845;28;20029;-85
2023/04/23 04:51:33;;;;;;;32.28;28.90;;;;;;;8.09;100.00;100571.47;5031391;28;20381;-85
2023/04/23 04:53:58;;;;;;;31.80;28.48;;;;;;;8.06;100.00;100565.63;5029653;28;20033;-85
2023/04/23 04:56:29;;;;;;;31.40;28.20;;;;;;;8.08;100.00;100571.59;5043149;28;20017;-85
2023/04/23 04:58:58;;;;;;;32.38;29.02;;;;;;;8.03;100.00;100571.06;5050740;28;20075;-85
2023/04/23 05:01:25;;;;;;;31.63;28.05;;;;;;;8.02;100.00;100574.63;5049408;28;20116;-85
2023/04/23 05:03:57;;;;;;;32.60;29.08;;;;;;;8.03;100.00;100579.75;5051141;28;20024;-85
2023/04/23 05:06:27;;;;;;;31.10;28.08;;;;;;;8.04;100.00;100573.56;5050851;28;20773;-85
2023/04/23 05:08:53;;;;;;;33.47;29.13;;;;;;;8.07;100.00;100585.63;5050276;28;20021;-85
2023/04/23 05:11:21;;;;;;;31.55;27.98;;;;;;;8.11;100.00;100574.84;5050619;28;20024;-85
2023/04/23 05:13:52;;;;;;;32.03;28.83;;;;;;;8.14;100.00;100574.63;5046347;28;20449;-85
2023/04/23 05:16:46;;;;;;;32.35;28.95;;;;;;;8.20;100.00;100578.59;5035642;28;20027;-85
2023/04/23 05:19:15;;;;;;;32.65;29.13;;;;;;;8.27;100.00;100576.41;5046035;28;20025;-85
2023/04/23 05:21:41;;;;;;;31.58;28.38;;;;;;;8.32;100.00;100574.28;5063644;28;20465;-85
2023/04/23 05:24:10;;;;;;;33.35;30.02;;;;;;;8.34;100.00;100580.31;5050290;28;20056;-84
2023/04/23 05:26:56;;;;;;;31.77;28.58;;;;;;;8.39;100.00;100578.19;5050414;28;20110;-84
2023/04/23 05:29:21;;;;;;;32.33;29.10;;;;;;;8.47;100.00;100575.91;5044241;28;20036;-84
2023/04/23 05:31:50;;;;;;;30.77;27.58;;;;;;;8.50;100.00;100580.09;5036987;28;20029;-85
2023/04/23 05:34:16;;;;;;;32.72;28.10;;;;;;;8.54;100.00;100581.56;5049708;28;20027;-86
2023/04/23 05:36:47;;;;;;;30.35;27.30;;;;;;;8.57;100.00;100582.19;5048701;28;20052;-85
2023/04/23 05:39:19;;;;;;;31.48;28.23;;;;;;;8.60;100.00;100586.38;5047362;28;20045;-85
2023/04/23 05:41:44;;;;;;;31.38;28.05;;;;;;;8.67;100.00;100577.97;5046978;28;20040;-85
2023/04/23 05:44:13;;;;;;;30.35;27.05;;;;;;;8.71;100.00;100589.91;5063321;28;20442;-85
2023/04/23 05:46:38;;;;;;;29.27;26.27;;;;;;;8.78;100.00;100577.19;5045497;28;20031;-85
2023/04/23 05:49:15;;;;;;;30.05;26.95;;;;;;;8.84;100.00;100579.41;5049369;28;20462;-85
2023/04/23 05:51:50;;;;;;;30.38;26.90;;;;;;;8.92;100.00;100576.22;5046731;28;20037;-85
2023/04/23 05:54:18;;;;;;;28.02;25.08;;;;;;;8.96;100.00;100565.41;5047735;28;20039;-86
2023/04/23 05:56:47;;;;;;;28.30;25.30;;;;;;;8.98;100.00;100571.38;5049583;28;20436;-86
2023/04/23 05:59:18;;;;;;;26.98;24.25;;;;;;;9.01;100.00;100578.19;5046848;28;20029;-85
2023/04/23 06:02:02;;;;;;;28.25;25.25;;;;;;;9.11;100.00;100581.81;5040909;28;20176;-85
2023/04/23 06:04:30;;;;;;;27.60;24.73;;;;;;;9.21;100.00;100582.03;5027994;28;20032;-84
2023/04/23 06:07:14;;;;;;;26.05;23.45;;;;;;;9.33;100.00;100574.09;5048352;28;20017;-85
2023/04/23 06:09:40;;;;;;;26.40;23.60;;;;;;;9.42;100.00;100565.53;5047829;28;20159;-85
2023/04/23 06:12:48;;;;;;;25.98;23.20;;;;;;;9.53;100.00;100566.50;5048563;28;20112;-85
2023/04/23 06:15:16;;;;;;;24.52;22.08;;;;;;;9.67;100.00;100569.81;5047209;28;20432;-84
2023/04/23 06:20:33;;;;;;;24.25;21.65;;;;;;;9.90;100.00;100554.94;5049530;28;20029;-85
2023/04/23 06:22:58;;;;;;;23.80;21.23;;;;;;;9.97;100.00;100550.88;5048599;28;20029;-84
2023/04/23 06:25:44;;;;;;;22.60;20.30;;;;;;;10.10;100.00;100550.78;5047964;28;20032;-84
2023/04/23 06:28:27;;;;;;;23.05;20.75;;;;;;;10.24;100.00;100539.25;5048193;28;20033;-84
2023/04/23 06:31:26;;;;;;;22.40;20.17;;;;;;;10.39;100.00;100545.94;5049376;28;20031;-85
2023/04/23 06:33:54;;;;;;;21.77;19.65;;;;;;;10.57;100.00;100544.50;5048365;28;20029;-84
2023/04/23 06:36:43;;;;;;;21.48;19.38;;;;;;;10.70;100.00;100547.00;5047184;28;20481;-84
2023/04/23 06:39:11;;;;;;;21.10;18.65;;;;;;;10.84;100.00;100540.66;5046399;28;20053;-83
2023/04/23 06:41:40;;;;;;;20.75;18.67;;;;;;;10.87;100.00;100540.41;5046658;28;20075;-84
2023/04/23 06:44:43;;;;;;;21.08;17.55;;;;;;;11.06;100.00;100540.59;5048713;28;20396;-84
2023/04/23 06:47:11;;;;;;;18.58;16.52;;;;;;;11.14;100.00;100543.44;5045974;28;20040;-85
2023/04/23 06:49:41;;;;;;;18.63;16.67;;;;;;;11.41;100.00;100539.50;5048649;28;20029;-85
2023/04/23 06:52:28;;;;;;;17.70;15.90;;;;;;;11.51;100.00;100540.41;5048231;28;20032;-84
2023/04/23 06:54:56;;;;;;;15.77;14.00;;;;;;;11.53;100.00;100541.97;5048043;28;20139;-84
2023/04/23 06:57:21;;;;;;;18.90;14.98;;;;;;;11.73;100.00;100529.78;5048641;28;20104;-84
2023/04/23 06:59:53;;;;;;;15.13;12.70;;;;;;;11.82;100.00;100534.31;5047814;28;20137;-84
2023/04/23 07:02:18;;;;;;;17.10;13.60;;;;;;;11.93;100.00;100531.59;5046276;28;20021;-84
2023/04/23 07:04:44;;;;;;;13.98;12.50;;;;;;;12.08;100.00;100531.28;5049329;28;20036;-85
2023/04/23 07:07:12;;;;;;;14.75;12.60;;;;;;;12.20;100.00;100533.69;5036176;28;20009;-84
2023/04/23 07:09:46;;;;;;;14.65;11.02;;;;;;;12.43;100.00;100534.34;5062123;28;20025;-84
2023/04/23 07:12:14;;;;;;;12.60;10.52;;;;;;;12.54;100.00;100531.59;5048955;28;20033;-84
2023/04/23 07:14:53;;;;;;;12.80;9.45;;;;;;;12.65;100.00;100532.47;5048642;28;20428;-84
2023/04/23 07:17:21;;;;;;;14.70;9.30;;;;;;;12.82;100.00;100529.19;5048435;28;20021;-84
2023/04/23 07:19:46;;;;;;;11.60;9.30;;;;;;;13.01;99.25;100534.50;5048890;28;20504;-83
2023/04/23 07:22:15;;;;;;;13.65;8.63;;;;;;;13.07;96.21;100533.94;5042186;28;20044;-84
2023/04/23 07:24:43;;;;;;;12.50;7.65;;;;;;;13.26;97.17;100527.91;5052281;28;20021;-84
2023/04/23 07:27:12;;;;;;;14.05;8.10;;;;;;;13.38;95.67;100520.66;5052492;28;20021;-84
2023/04/23 07:29:40;;;;;;;15.88;7.55;;;;;;;13.49;96.58;100521.34;5051693;28;20032;-85
2023/04/23 07:32:09;;;;;;;13.98;8.07;;;;;;;13.63;93.62;100524.56;5051555;28;20025;-84
2023/04/23 07:34:35;;;;;;;11.35;6.88;;;;;;;13.76;93.54;100517.97;5051201;28;20389;-84
2023/04/23 07:37:04;;;;;;;9.90;6.55;;;;;;;13.95;92.03;100516.25;5049597;28;20029;-85
2023/04/23 07:39:33;;;;;;;9.68;6.13;;;;;;;14.07;91.02;100512.47;5051713;28;20422;-85
2023/04/23 07:42:08;;;;;;;12.43;6.07;;;;;;;14.24;90.40;100509.06;5040083;28;20048;-84
2023/04/23 07:44:36;;;;;;;10.18;6.15;;;;;;;14.41;89.20;100513.63;5050821;28;20029;-85
2023/04/23 07:47:11;;;;;;;12.77;6.05;;;;;;;14.57;88.28;100510.34;5050646;28;20060;-85
2023/04/23 07:49:36;;;;;;;10.75;5.93;;;;;;;14.55;85.64;100512.31;5051678;28;20032;-86
2023/04/23 07:52:11;;;;;;;9.60;5.35;;;;;;;14.68;86.79;100511.97;5050916;28;20037;-85
2023/04/23 07:54:36;;;;;;;10.90;5.25;;;;;;;14.85;84.31;100511.19;5050935;28;20017;-83
2023/04/23 07:57:02;;;;;;;10.75;4.97;;;;;;;14.96;85.52;100503.00;5046052;28;20040;-84
2023/04/23 07:59:28;;;;;;;10.05;5.15;;;;;;;15.13;84.20;100503.16;5044215;28;20033;-84
2023/04/23 08:01:54;;;;;;;11.65;5.05;;;;;;;15.25;81.32;100501.97;5051614;28;20032;-84
2023/04/23 08:04:23;;;;;;;10.68;5.00;;;;;;;15.47;81.79;100506.78;5045478;28;20029;-83
2023/04/23 08:06:51;;;;;;;10.65;5.00;;;;;;;15.57;79.76;100488.13;5048144;28;20025;-83
2023/04/23 08:09:16;;;;;;;9.57;4.90;;;;;;;15.70;79.96;100493.91;5045219;28;20041;-83
2023/04/23 08:11:45;;;;;;;13.23;4.97;;;;;;;15.81;79.08;100490.16;5048842;28;20033;-84
2023/04/23 08:14:10;;;;;;;11.65;4.72;;;;;;;15.79;77.65;100497.44;5049105;28;20029;-84
2023/04/23 08:16:36;;;;;;;10.65;4.68;;;;;;;15.93;78.76;100491.56;5050225;28;20029;-84
2023/04/23 08:19:04;;;;;;;9.82;4.22;;;;;;;16.12;77.69;100491.34;5049235;28;20033;-84
2023/04/23 08:21:33;;;;;;;9.75;3.85;;;;;;;16.22;76.48;100484.09;5049533;28;20029;-82
2023/04/23 08:23:58;;;;;;;11.25;3.80;;;;;;;16.44;76.63;100477.41;5037715;28;20385;-82
2023/04/23 08:26:27;;;;;;;10.10;4.15;;;;;;;16.53;76.37;100479.09;5050789;28;20109;-85
2023/04/23 08:29:02;;;;;;;10.10;4.22;;;;;;;16.74;74.54;100476.00;5051595;28;20017;-85
2023/04/23 08:31:31;;;;;;;8.70;3.47;;;;;;;16.91;73.97;100476.88;5050049;28;20548;-81
2023/04/23 08:34:00;;;;;;;10.63;4.13;;;;;;;17.06;74.82;100471.75;5051792;28;20029;-84
2023/04/23 08:36:26;;;;;;;9.55;3.65;;;;;;;17.21;71.80;100467.44;5051512;28;20025;-84
2023/04/23 08:38:51;;;;;;;12.50;3.45;;;;;;;17.39;70.22;100468.13;5041611;28;20048;-84
2023/04/23 08:41:31;;;;;;;8.98;3.35;;;;;;;17.41;69.22;100476.75;5050741;28;20055;-81
2023/04/23 08:44:09;;;;;;;8.90;3.15;;;;;;;17.55;68.95;100478.75;5051856;28;20037;-83
2023/04/23 08:46:43;;;;;;;10.68;3.70;;;;;;;17.49;66.99;100468.78;5049049;28;20504;-84
2023/04/23 08:49:17;;;;;;;9.70;3.35;;;;;;;17.87;67.90;100465.59;5051045;28;20150;-84
2023/04/23 08:51:59;;;;;;;10.43;3.40;;;;;;;17.99;66.05;100459.72;5051312;28;20033;-85
2023/04/23 08:54:33;;;;;;;9.15;3.13;;;;;;;18.00;64.87;100460.56;5049277;28;20029;-82
2023/04/23 08:57:06;;;;;;;9.35;2.95;;;;;;;18.02;65.52;100464.72;5048715;28;20032;-82
2023/04/23 08:59:37;;;;;;;;;;;;;;;18.35;71.91;100470.75;5051943;28;20480;-81
2023/04/23 09:02:09;;;;;;;11.90;2.88;;;;;;;18.20;63.45;100461.84;5049034;28;19919;-81
2023/04/23 09:04:55;;;;;;;8.20;3.33;;;;;;;18.12;66.98;100465.38;5049994;28;20075;-82
2023/04/23 09:07:23;;;;;;;7.43;2.90;;;;;;;18.01;64.21;100468.41;5044716;28;20446;-81
2023/04/23 09:09:52;;;;;;;8.15;2.70;;;;;;;17.81;62.83;100461.78;5047326;28;20105;-81
2023/04/23 09:12:17;;;;;;;8.38;2.92;;;;;;;17.66;63.40;100469.59;5047073;28;20033;-81
2023/04/23 09:14:52;;;;;;;7.45;2.50;;;;;;;17.61;63.33;100460.44;5050401;28;20063;-84
2023/04/23 09:17:18;;;;;;;9.07;2.90;;;;;;;17.79;63.56;100453.13;5061783;28;20375;-83
2023/04/23 09:19:53;;;;;;;7.53;2.30;;;;;;;17.72;63.31;100457.47;5049804;28;20078;-83
2023/04/23 09:22:47;;;;;;;8.43;2.30;;;;;;;17.53;65.80;100450.63;5047877;28;20024;-82
2023/04/23 09:25:22;;;;;;;9.20;2.30;;;;;;;17.64;64.12;100449.50;5045846;28;20059;-83
2023/04/23 09:30:48;;;;;;;7.40;2.30;;;;;;;17.98;59.88;100449.25;5042505;28;20032;-82
2023/04/23 09:33:15;;;;;;;6.65;2.00;;;;;;;18.02;58.65;100443.44;5049902;28;20028;-81
2023/04/23 09:35:42;;;;;;;9.57;2.28;;;;;;;18.04;58.89;100441.44;5049452;28;20500;-83
2023/04/23 09:38:18;;;;;;;8.90;2.15;;;;;;;18.29;58.41;100438.66;5046440;28;20139;-82
2023/04/23 09:40:45;;;;;;;6.65;1.85;;;;;;;18.73;57.12;100426.44;5041982;28;20037;-82
2023/04/23 09:43:11;;;;;;;5.75;1.88;;;;;;;19.00;56.16;100438.44;5046980;28;20111;-82
2023/04/23 09:45:36;;;;;;;4.10;1.50;;;;;;;19.22;54.84;100430.63;5047746;28;20107;-83
2023/04/23 09:48:09;;;;;;;8.55;1.63;;;;;;;19.23;54.48;100437.63;5050301;28;20028;-83
2023/04/23 09:50:37;;;;;;;;;;;;;;;19.46;56.66;100440.22;5045864;28;20452;-82
2023/04/23 09:53:08;;;;;;;8.15;1.90;;;;;;;18.95;52.70;100437.31;5045218;28;19924;-82
2023/04/23 09:55:38;;;;;;;8.30;2.15;;;;;;;18.59;54.24;100440.50;5048247;28;20028;-82
2023/04/23 09:58:13;;;;;;;9.00;2.30;;;;;;;18.32;55.41;100430.31;5039373;28;20094;-83
2023/04/23 10:00:46;;;;;;;6.75;2.28;;;;;;;18.12;57.09;100427.25;5051290;28;20051;-84
2023/04/23 10:03:12;;;;;;;7.55;2.22;;;;;;;18.12;56.77;100420.09;5035616;28;20070;-83
2023/04/23 10:05:43;;;;;;;5.97;2.00;;;;;;;18.19;57.47;100430.06;5046826;28;20424;-83
2023/04/23 10:08:08;;;;;;;8.15;2.10;;;;;;;18.08;56.81;100418.78;5047319;28;20021;-83
2023/04/23 10:10:43;;;;;;;9.82;2.10;;;;;;;18.05;57.51;100411.16;5046187;28;20029;-82
2023/04/23 10:13:15;;;;;;;6.63;2.20;;;;;;;17.84;56.77;100425.00;5050466;28;20053;-83
2023/04/23 10:15:40;;;;;;;7.70;2.03;;;;;;;17.89;58.43;100411.19;5050806;28;20044;-82
2023/04/23 10:18:06;;;;;;;7.32;2.03;;;;;;;18.04;59.59;100408.66;5049318;28;20056;-84
2023/04/23 10:20:43;;;;;;;8.13;2.15;;;;;;;18.62;57.24;100418.88;5043335;28;20033;-83
2023/04/23 10:23:25;;;;;;;7.15;2.00;;;;;;;18.98;55.83;100412.97;5050206;28;20033;-82
2023/04/23 10:25:53;;;;;;;8.25;2.47;;;;;;;19.13;54.80;100407.66;5046600;28;20032;-84
2023/04/23 10:28:30;;;;;;;7.68;2.40;;;;;;;19.30;56.44;100402.03;5048324;28;20442;-83
2023/04/23 10:30:56;;;;;;;7.30;2.58;;;;;;;18.94;54.69;100406.34;5047732;28;20022;-82
2023/04/23 10:33:32;;;;;;;7.15;2.30;;;;;;;18.33;56.94;100405.34;5063938;28;20078;-83
2023/04/23 10:35:58;;;;;;;7.32;1.95;;;;;;;18.09;57.69;100401.81;5049236;28;20040;-83
2023/04/23 10:38:27;;;;;;;7.30;2.17;;;;;;;17.66;58.80;100402.25;5050854;28;20362;-82
2023/04/23 10:40:58;;;;;;;9.18;2.00;;;;;;;17.47;59.11;100409.59;5047822;28;20033;-83
2023/04/23 10:43:47;;;;;;;9.50;2.30;;;;;;;17.49;61.94;100396.94;5052364;28;20497;-84
2023/04/23 10:46:51;;;;;;;13.98;5.88;;;;;;;17.53;62.74;100392.94;5063735;28;20017;-84
2023/04/23 10:49:27;;;;;;;6.05;2.38;;;;;;;17.48;60.96;100384.66;5049110;28;20370;-83
2023/04/23 10:52:22;;;;;;;6.45;1.63;;;;;;;17.55;60.47;100393.59;5050282;28;20028;-83
2023/04/23 10:55:11;;;;;;;7.35;1.90;;;;;;;17.55;58.64;100376.81;5051377;28;20029;-83
2023/04/23 10:58:06;;;;;;;7.90;2.35;;;;;;;17.87;60.73;100375.94;5053856;28;20017;-83
2023/04/23 11:00:45;;;;;;;9.43;4.05;;;;;;;18.26;61.05;100369.75;5053184;28;20036;-83
2023/04/23 11:03:38;;;;;;;7.88;2.15;;;;;;;18.19;59.35;100374.97;5041447;28;20036;-82
2023/04/23 11:06:07;;;;;;;;;;;;;;;18.29;61.50;100353.44;5067069;28;20059;-83
2023/04/23 11:09:00;;;;;;;5.97;1.90;;;;;;;17.98;61.22;100361.41;5049824;28;19913;-84
2023/04/23 11:11:50;;;;;;;;;;;;;;;18.03;62.20;100362.56;5051842;28;20481;-83
2023/04/23 11:14:35;;;;;;;6.70;1.92;;;;;;;17.44;59.58;100362.03;5052734;28;19912;-84
2023/04/23 11:17:05;;;;;;;6.60;2.05;;;;;;;17.27;60.27;100357.78;5049851;28;20025;-83
2023/04/23 11:19:37;;;;;;;5.03;1.95;;;;;;;17.25;59.92;100343.00;5041203;28;20029;-83
2023/04/23 11:22:20;;;;;;;9.00;2.13;;;;;;;17.29;59.63;100350.47;5053237;28;20427;-82
2023/04/23 11:24:45;;;;;;;6.25;2.10;;;;;;;17.35;60.83;100341.78;5050091;28;20382;-82
2023/04/23 11:27:19;;;;;;;4.82;1.83;;;;;;;17.28;59.59;100342.66;5050470;28;20032;-83
2023/04/23 11:29:48;;;;;;;5.20;1.80;;;;;;;17.17;60.10;100331.34;5043006;28;20505;-83
2023/04/23 11:32:21;;;;;;;6.78;2.30;;;;;;;17.00;61.67;100340.34;5040086;28;20025;-82
2023/04/23 11:34:57;;;;;;;6.70;2.55;;;;;;;16.75;68.93;100336.84;5051097;28;20029;-86
2023/04/23 11:37:25;;;;;;;4.13;1.20;;;;;;;16.33;66.37;100349.38;5051954;28;20754;-87
2023/04/23 11:40:05;;;;;;;5.03;1.60;;;;;;;15.88;71.32;100332.00;5047620;28;20048;-86
2023/04/23 11:42:39;;;;;;;4.43;1.45;;;;;;;15.82;73.87;100328.16;5045537;28;20564;-86
2023/04/23 11:45:13;;;;;;;5.05;1.90;;;;;;;15.86;77.75;100324.19;5049634;28;20028;-86